sensor_id;sensor_type;location;lat;lon;timestamp;pressure;altitude;pressure_sealevel;temperature;humidity
60589;BME280;46421;48.610;9.334;2023-02-21T00:01:40;98519.75;;;2.76;79.07
60589;BME280;46421;48.610;9.334;2023-02-21T00:04:24;98531.19;;;3.11;76.40
60589;BME280;46421;48.610;9.334;2023-02-21T00:07:08;98523.78;;;2.69;80.00
60589;BME280;46421;48.610;9.334;2023-02-21T00:09:52;98535.81;;;2.96;77.33
60589;BME280;46421;48.610;9.334;2023-02-21T00:12:35;98526.63;;;2.30;80.80
60589;BME280;46421;48.610;9.334;2023-02-21T00:15:19;98517.94;;;3.12;77.66
60589;BME280;46421;48.610;9.334;2023-02-21T00:18:04;98523.56;;;2.36;79.62
60589;BME280;46421;48.610;9.334;2023-02-21T00:20:47;98523.94;;;2.43;80.65
60589;BME280;46421;48.610;9.334;2023-02-21T00:23:35;98520.28;;;2.21;81.60
60589;BME280;46421;48.610;9.334;2023-02-21T00:26:19;98523.88;;;2.08;81.61
60589;BME280;46421;48.610;9.334;2023-02-21T00:29:03;98526.97;;;2.01;81.73
60589;BME280;46421;48.610;9.334;2023-02-21T00:31:47;98521.75;;;2.13;81.63
60589;BME280;46421;48.610;9.334;2023-02-21T00:34:31;98525.72;;;1.94;82.39
60589;BME280;46421;48.610;9.334;2023-02-21T00:37:15;98525.53;;;2.93;79.89
60589;BME280;46421;48.610;9.334;2023-02-21T00:39:58;98518.97;;;2.87;76.93
60589;BME280;46421;48.610;9.334;2023-02-21T00:42:42;98516.75;;;3.28;78.09
60589;BME280;46421;48.610;9.334;2023-02-21T00:45:26;98511.72;;;2.66;77.30
60589;BME280;46421;48.610;9.334;2023-02-21T00:48:10;98513.44;;;1.57;82.51
60589;BME280;46421;48.610;9.334;2023-02-21T00:50:54;98520.59;;;2.17;80.73
60589;BME280;46421;48.610;9.334;2023-02-21T00:53:38;98504.56;;;1.84;81.72
60589;BME280;46421;48.610;9.334;2023-02-21T00:56:21;98517.59;;;1.73;82.28
60589;BME280;46421;48.610;9.334;2023-02-21T00:59:05;98511.66;;;1.45;83.62
60589;BME280;46421;48.610;9.334;2023-02-21T01:01:49;98516.50;;;2.73;79.65
60589;BME280;46421;48.610;9.334;2023-02-21T01:04:33;98508.72;;;1.87;81.24
60589;BME280;46421;48.610;9.334;2023-02-21T01:07:17;98502.16;;;2.54;80.41
60589;BME280;46421;48.610;9.334;2023-02-21T01:10:01;98510.78;;;3.14;76.17
60589;BME280;46421;48.610;9.334;2023-02-21T01:12:45;98504.03;;;2.88;78.01
60589;BME280;46421;48.610;9.334;2023-02-21T01:15:29;98505.81;;;2.16;81.28
60589;BME280;46421;48.610;9.334;2023-02-21T01:18:13;98513.63;;;1.67;81.97
60589;BME280;46421;48.610;9.334;2023-02-21T01:20:57;98506.78;;;1.28;84.72
60589;BME280;46421;48.610;9.334;2023-02-21T01:23:41;98480.25;;;1.82;84.32
60589;BME280;46421;48.610;9.334;2023-02-21T01:26:24;98502.44;;;2.74;78.64
60589;BME280;46421;48.610;9.334;2023-02-21T01:29:08;98502.09;;;2.43;81.15
60589;BME280;46421;48.610;9.334;2023-02-21T01:31:53;98499.16;;;1.99;80.46
60589;BME280;46421;48.610;9.334;2023-02-21T01:34:36;98503.34;;;1.64;81.03
60589;BME280;46421;48.610;9.334;2023-02-21T01:37:20;98510.66;;;1.35;83.76
60589;BME280;46421;48.610;9.334;2023-02-21T01:40:05;98506.31;;;2.21;80.56
60589;BME280;46421;48.610;9.334;2023-02-21T01:42:48;98500.47;;;1.43;83.91
60589;BME280;46421;48.610;9.334;2023-02-21T01:48:22;98495.28;;;1.92;85.03
60589;BME280;46421;48.610;9.334;2023-02-21T01:51:09;98490.66;;;1.95;82.41
60589;BME280;46421;48.610;9.334;2023-02-21T01:53:55;98490.06;;;1.54;83.49
60589;BME280;46421;48.610;9.334;2023-02-21T01:56:40;98482.25;;;2.03;81.95
60589;BME280;46421;48.610;9.334;2023-02-21T01:59:24;98486.72;;;2.14;81.09
60589;BME280;46421;48.610;9.334;2023-02-21T02:02:19;98491.59;;;1.20;84.96
60589;BME280;46421;48.610;9.334;2023-02-21T02:05:07;98484.22;;;1.25;83.57
60589;BME280;46421;48.610;9.334;2023-02-21T02:07:52;98484.00;;;1.41;84.89
60589;BME280;46421;48.610;9.334;2023-02-21T02:10:37;98490.31;;;1.76;81.41
60589;BME280;46421;48.610;9.334;2023-02-21T02:21:44;98488.53;;;1.26;85.63
60589;BME280;46421;48.610;9.334;2023-02-21T02:24:40;98482.28;;;1.03;86.58
60589;BME280;46421;48.610;9.334;2023-02-21T02:27:19;98489.69;;;2.09;81.49
60589;BME280;46421;48.610;9.334;2023-02-21T02:38:51;98462.25;;;1.15;85.14
60589;BME280;46421;48.610;9.334;2023-02-21T02:41:44;98463.09;;;1.65;83.66
60589;BME280;46421;48.610;9.334;2023-02-21T02:44:19;98458.81;;;1.88;84.41
60589;BME280;46421;48.610;9.334;2023-02-21T02:46:49;98459.97;;;0.97;85.03
60589;BME280;46421;48.610;9.334;2023-02-21T02:49:27;98461.19;;;1.43;82.27
60589;BME280;46421;48.610;9.334;2023-02-21T02:51:53;98460.47;;;1.65;84.40
60589;BME280;46421;48.610;9.334;2023-02-21T02:54:19;98444.56;;;1.18;82.87
60589;BME280;46421;48.610;9.334;2023-02-21T02:56:44;98452.63;;;1.02;85.65
60589;BME280;46421;48.610;9.334;2023-02-21T02:59:13;98449.47;;;1.23;84.67
60589;BME280;46421;48.610;9.334;2023-02-21T03:10:34;98437.53;;;1.56;83.88
60589;BME280;46421;48.610;9.334;2023-02-21T03:19:04;98468.75;;;0.70;86.09
60589;BME280;46421;48.610;9.334;2023-02-21T03:22:09;98459.13;;;0.71;86.37
60589;BME280;46421;48.610;9.334;2023-02-21T03:24:27;98455.72;;;1.33;84.18
60589;BME280;46421;48.610;9.334;2023-02-21T03:26:58;98458.19;;;0.72;85.07
60589;BME280;46421;48.610;9.334;2023-02-21T03:29:26;98449.50;;;0.84;84.97
60589;BME280;46421;48.610;9.334;2023-02-21T03:32:00;98455.66;;;0.70;84.94
60589;BME280;46421;48.610;9.334;2023-02-21T03:34:40;98455.09;;;0.39;86.19
60589;BME280;46421;48.610;9.334;2023-02-21T03:37:08;98458.59;;;1.17;83.71
60589;BME280;46421;48.610;9.334;2023-02-21T03:39:34;98459.19;;;1.34;81.93
60589;BME280;46421;48.610;9.334;2023-02-21T03:41:59;98463.56;;;1.46;83.17
60589;BME280;46421;48.610;9.334;2023-02-21T03:44:25;98455.22;;;1.02;84.63
60589;BME280;46421;48.610;9.334;2023-02-21T03:46:50;98458.47;;;0.54;86.69
60589;BME280;46421;48.610;9.334;2023-02-21T03:49:15;98447.75;;;-0.09;88.80
60589;BME280;46421;48.610;9.334;2023-02-21T03:51:41;98456.88;;;-0.29;91.00
60589;BME280;46421;48.610;9.334;2023-02-21T03:54:06;98454.19;;;0.53;86.89
60589;BME280;46421;48.610;9.334;2023-02-21T03:56:31;98437.97;;;1.13;84.33
60589;BME280;46421;48.610;9.334;2023-02-21T03:58:57;98448.59;;;0.32;86.07
60589;BME280;46421;48.610;9.334;2023-02-21T04:01:22;98455.69;;;0.17;88.85
60589;BME280;46421;48.610;9.334;2023-02-21T04:03:47;98455.53;;;1.10;83.85
60589;BME280;46421;48.610;9.334;2023-02-21T04:06:13;98447.91;;;1.07;82.21
60589;BME280;46421;48.610;9.334;2023-02-21T04:08:38;98445.84;;;0.61;86.61
60589;BME280;46421;48.610;9.334;2023-02-21T04:11:04;98459.97;;;0.18;87.76
60589;BME280;46421;48.610;9.334;2023-02-21T04:13:29;98454.56;;;-0.06;88.63
60589;BME280;46421;48.610;9.334;2023-02-21T04:15:54;98456.13;;;-0.31;91.66
60589;BME280;46421;48.610;9.334;2023-02-21T04:18:20;98448.44;;;0.61;87.89
60589;BME280;46421;48.610;9.334;2023-02-21T04:20:45;98449.53;;;1.34;81.99
60589;BME280;46421;48.610;9.334;2023-02-21T04:23:14;98445.16;;;1.35;81.16
60589;BME280;46421;48.610;9.334;2023-02-21T04:25:39;98456.38;;;0.59;84.73
60589;BME280;46421;48.610;9.334;2023-02-21T04:28:05;98454.31;;;0.11;87.67
60589;BME280;46421;48.610;9.334;2023-02-21T04:30:30;98460.06;;;-0.24;89.59
60589;BME280;46421;48.610;9.334;2023-02-21T04:32:55;98447.91;;;-0.25;90.34
60589;BME280;46421;48.610;9.334;2023-02-21T04:35:21;98452.13;;;0.18;88.63
60589;BME280;46421;48.610;9.334;2023-02-21T04:37:46;98447.63;;;0.07;88.52
60589;BME280;46421;48.610;9.334;2023-02-21T04:40:12;98452.63;;;0.10;89.81
60589;BME280;46421;48.610;9.334;2023-02-21T04:42:38;98450.59;;;0.01;89.69
60589;BME280;46421;48.610;9.334;2023-02-21T04:45:03;98450.41;;;0.04;89.81
60589;BME280;46421;48.610;9.334;2023-02-21T04:47:28;98447.56;;;0.47;86.68
60589;BME280;46421;48.610;9.334;2023-02-21T04:49:54;98449.31;;;0.21;87.93
60589;BME280;46421;48.610;9.334;2023-02-21T04:52:19;98462.69;;;0.70;84.99
60589;BME280;46421;48.610;9.334;2023-02-21T04:54:45;98446.97;;;0.57;85.96
60589;BME280;46421;48.610;9.334;2023-02-21T04:57:11;98448.13;;;1.17;83.81
60589;BME280;46421;48.610;9.334;2023-02-21T04:59:36;98447.91;;;0.56;86.78
60589;BME280;46421;48.610;9.334;2023-02-21T05:02:02;98453.91;;;0.18;88.22
60589;BME280;46421;48.610;9.334;2023-02-21T05:04:27;98444.38;;;-0.24;91.33
60589;BME280;46421;48.610;9.334;2023-02-21T05:06:52;98454.25;;;-0.29;90.80
60589;BME280;46421;48.610;9.334;2023-02-21T05:09:18;98450.81;;;-0.29;91.04
60589;BME280;46421;48.610;9.334;2023-02-21T05:11:43;98444.38;;;1.08;85.98
60589;BME280;46421;48.610;9.334;2023-02-21T05:14:08;98451.47;;;0.42;86.75
60589;BME280;46421;48.610;9.334;2023-02-21T05:16:35;98445.22;;;0.17;88.38
60589;BME280;46421;48.610;9.334;2023-02-21T05:19:01;98413.44;;;-0.17;90.03
60589;BME280;46421;48.610;9.334;2023-02-21T05:21:26;98451.84;;;1.39;83.40
60589;BME280;46421;48.610;9.334;2023-02-21T05:23:52;98436.06;;;1.15;84.54
60589;BME280;46421;48.610;9.334;2023-02-21T05:26:23;98443.66;;;0.14;86.35
60589;BME280;46421;48.610;9.334;2023-02-21T05:28:49;98445.81;;;0.08;88.70
60589;BME280;46421;48.610;9.334;2023-02-21T05:31:14;98452.41;;;0.41;86.99
60589;BME280;46421;48.610;9.334;2023-02-21T05:33:40;98455.13;;;-0.01;88.95
60589;BME280;46421;48.610;9.334;2023-02-21T05:36:05;98448.56;;;-0.21;89.44
60589;BME280;46421;48.610;9.334;2023-02-21T05:38:31;98452.41;;;-0.27;90.49
60589;BME280;46421;48.610;9.334;2023-02-21T05:40:56;98450.94;;;-0.45;91.39
60589;BME280;46421;48.610;9.334;2023-02-21T05:43:22;98452.34;;;-0.12;90.86
60589;BME280;46421;48.610;9.334;2023-02-21T05:45:47;98447.75;;;0.19;88.19
60589;BME280;46421;48.610;9.334;2023-02-21T05:48:13;98445.38;;;-0.26;91.00
60589;BME280;46421;48.610;9.334;2023-02-21T05:50:38;98448.63;;;-0.08;90.74
60589;BME280;46421;48.610;9.334;2023-02-21T05:53:05;98456.59;;;-0.24;92.06
60589;BME280;46421;48.610;9.334;2023-02-21T05:55:30;98450.75;;;-0.42;91.89
60589;BME280;46421;48.610;9.334;2023-02-21T05:57:56;98449.13;;;-0.30;92.70
60589;BME280;46421;48.610;9.334;2023-02-21T06:00:27;98460.53;;;-0.32;91.27
60589;BME280;46421;48.610;9.334;2023-02-21T06:02:54;98458.66;;;-0.02;90.16
60589;BME280;46421;48.610;9.334;2023-02-21T06:05:20;98465.09;;;0.60;86.43
60589;BME280;46421;48.610;9.334;2023-02-21T06:07:47;98456.69;;;0.42;86.41
60589;BME280;46421;48.610;9.334;2023-02-21T06:10:12;98461.41;;;0.09;89.32
60589;BME280;46421;48.610;9.334;2023-02-21T06:12:38;98437.97;;;-0.47;89.33
60589;BME280;46421;48.610;9.334;2023-02-21T06:15:03;98456.13;;;-0.31;90.63
60589;BME280;46421;48.610;9.334;2023-02-21T06:17:34;98459.59;;;-0.30;91.29
60589;BME280;46421;48.610;9.334;2023-02-21T06:20:00;98450.94;;;-0.45;92.18
60589;BME280;46421;48.610;9.334;2023-02-21T06:22:25;98452.47;;;0.39;89.23
60589;BME280;46421;48.610;9.334;2023-02-21T06:24:50;98454.91;;;0.02;90.31
60589;BME280;46421;48.610;9.334;2023-02-21T06:27:16;98447.34;;;-0.30;90.55
60589;BME280;46421;48.610;9.334;2023-02-21T06:29:41;98441.78;;;-0.38;91.62
60589;BME280;46421;48.610;9.334;2023-02-21T06:32:06;98437.09;;;0.22;89.73
60589;BME280;46421;48.610;9.334;2023-02-21T06:34:32;98440.69;;;-0.49;91.83
60589;BME280;46421;48.610;9.334;2023-02-21T06:36:57;98451.47;;;-0.26;91.16
60589;BME280;46421;48.610;9.334;2023-02-21T06:39:23;98457.44;;;0.04;90.21
60589;BME280;46421;48.610;9.334;2023-02-21T06:41:49;98451.56;;;0.53;89.64
60589;BME280;46421;48.610;9.334;2023-02-21T06:44:14;98439.81;;;1.61;81.29
60589;BME280;46421;48.610;9.334;2023-02-21T06:46:41;98429.94;;;2.01;79.59
60589;BME280;46421;48.610;9.334;2023-02-21T06:49:07;98435.16;;;1.03;83.25
60589;BME280;46421;48.610;9.334;2023-02-21T06:51:37;98437.75;;;0.51;85.32
60589;BME280;46421;48.610;9.334;2023-02-21T06:54:03;98444.97;;;0.35;87.04
60589;BME280;46421;48.610;9.334;2023-02-21T06:56:29;98447.38;;;0.51;85.63
60589;BME280;46421;48.610;9.334;2023-02-21T06:58:55;98445.94;;;0.98;84.04
60589;BME280;46421;48.610;9.334;2023-02-21T07:01:21;98449.38;;;0.86;85.38
60589;BME280;46421;48.610;9.334;2023-02-21T07:03:47;98453.31;;;1.43;81.88
60589;BME280;46421;48.610;9.334;2023-02-21T07:06:13;98444.75;;;1.65;81.83
60589;BME280;46421;48.610;9.334;2023-02-21T07:08:39;98434.31;;;2.25;77.71
60589;BME280;46421;48.610;9.334;2023-02-21T07:11:05;98453.38;;;2.27;78.30
60589;BME280;46421;48.610;9.334;2023-02-21T07:13:31;98449.19;;;2.60;76.68
60589;BME280;46421;48.610;9.334;2023-02-21T07:15:56;98455.13;;;4.31;69.36
60589;BME280;46421;48.610;9.334;2023-02-21T07:18:22;98455.91;;;5.47;63.38
60589;BME280;46421;48.610;9.334;2023-02-21T07:20:47;98455.31;;;6.83;58.59
60589;BME280;46421;48.610;9.334;2023-02-21T07:23:13;98453.72;;;7.47;56.65
60589;BME280;46421;48.610;9.334;2023-02-21T07:25:39;98450.31;;;7.83;55.41
60589;BME280;46421;48.610;9.334;2023-02-21T07:28:04;98454.53;;;7.75;54.74
60589;BME280;46421;48.610;9.334;2023-02-21T07:30:29;98454.31;;;7.87;54.86
60589;BME280;46421;48.610;9.334;2023-02-21T07:32:56;98456.72;;;8.62;52.24
60589;BME280;46421;48.610;9.334;2023-02-21T07:35:21;98460.41;;;8.33;52.45
60589;BME280;46421;48.610;9.334;2023-02-21T07:37:46;98445.22;;;9.32;50.88
60589;BME280;46421;48.610;9.334;2023-02-21T07:40:12;98455.28;;;10.06;49.00
60589;BME280;46421;48.610;9.334;2023-02-21T07:42:40;98461.44;;;10.32;48.38
60589;BME280;46421;48.610;9.334;2023-02-21T07:45:08;98451.97;;;10.21;47.61
60589;BME280;46421;48.610;9.334;2023-02-21T07:47:33;98460.88;;;9.95;49.38
60589;BME280;46421;48.610;9.334;2023-02-21T07:49:59;98459.47;;;10.75;48.52
60589;BME280;46421;48.610;9.334;2023-02-21T07:52:24;98451.50;;;10.58;48.35
60589;BME280;46421;48.610;9.334;2023-02-21T07:54:50;98447.13;;;12.03;43.17
60589;BME280;46421;48.610;9.334;2023-02-21T07:57:16;98456.72;;;12.12;45.21
60589;BME280;46421;48.610;9.334;2023-02-21T07:59:41;98453.16;;;11.89;46.97
60589;BME280;46421;48.610;9.334;2023-02-21T08:02:08;98451.06;;;13.60;42.05
60589;BME280;46421;48.610;9.334;2023-02-21T08:04:35;98456.50;;;13.52;42.25
60589;BME280;46421;48.610;9.334;2023-02-21T08:07:01;98456.03;;;13.63;40.26
60589;BME280;46421;48.610;9.334;2023-02-21T08:09:27;98444.75;;;14.41;40.18
60589;BME280;46421;48.610;9.334;2023-02-21T08:11:53;98435.16;;;14.68;39.21
60589;BME280;46421;48.610;9.334;2023-02-21T08:14:18;98438.31;;;14.35;40.41
60589;BME280;46421;48.610;9.334;2023-02-21T08:16:44;98442.38;;;14.10;39.74
60589;BME280;46421;48.610;9.334;2023-02-21T08:19:09;98441.81;;;14.36;41.06
60589;BME280;46421;48.610;9.334;2023-02-21T08:21:34;98444.19;;;15.24;39.32
60589;BME280;46421;48.610;9.334;2023-02-21T08:24:00;98441.72;;;15.64;38.05
60589;BME280;46421;48.610;9.334;2023-02-21T08:26:25;98446.81;;;15.94;37.01
60589;BME280;46421;48.610;9.334;2023-02-21T08:28:50;98444.44;;;16.47;36.08
60589;BME280;46421;48.610;9.334;2023-02-21T08:31:16;98451.53;;;16.95;35.87
60589;BME280;46421;48.610;9.334;2023-02-21T08:33:43;98450.38;;;14.25;40.13
60589;BME280;46421;48.610;9.334;2023-02-21T08:36:08;98449.19;;;16.24;37.45
60589;BME280;46421;48.610;9.334;2023-02-21T08:38:34;98450.06;;;16.85;37.95
60589;BME280;46421;48.610;9.334;2023-02-21T08:40:59;98456.63;;;17.30;35.80
60589;BME280;46421;48.610;9.334;2023-02-21T08:43:24;98458.47;;;18.01;33.63
60589;BME280;46421;48.610;9.334;2023-02-21T08:45:50;98452.75;;;18.30;36.22
60589;BME280;46421;48.610;9.334;2023-02-21T08:48:15;98458.03;;;18.11;33.74
60589;BME280;46421;48.610;9.334;2023-02-21T08:50:41;98456.91;;;17.74;33.40
60589;BME280;46421;48.610;9.334;2023-02-21T08:53:06;98454.22;;;18.26;34.13
60589;BME280;46421;48.610;9.334;2023-02-21T08:55:31;98453.66;;;20.60;30.32
60589;BME280;46421;48.610;9.334;2023-02-21T08:57:57;98448.31;;;19.43;31.46
60589;BME280;46421;48.610;9.334;2023-02-21T09:00:24;98446.13;;;19.52;32.72
60589;BME280;46421;48.610;9.334;2023-02-21T09:02:53;98448.06;;;20.01;30.74
60589;BME280;46421;48.610;9.334;2023-02-21T09:05:25;98435.81;;;18.55;30.81
60589;BME280;46421;48.610;9.334;2023-02-21T09:07:51;98430.31;;;21.37;28.56
60589;BME280;46421;48.610;9.334;2023-02-21T09:10:27;98443.47;;;21.98;26.99
60589;BME280;46421;48.610;9.334;2023-02-21T09:12:52;98441.34;;;22.75;25.38
60589;BME280;46421;48.610;9.334;2023-02-21T09:15:18;98442.25;;;20.58;29.65
60589;BME280;46421;48.610;9.334;2023-02-21T09:17:47;98440.72;;;23.41;24.35
60589;BME280;46421;48.610;9.334;2023-02-21T09:20:19;98429.84;;;23.19;24.17
60589;BME280;46421;48.610;9.334;2023-02-21T09:22:44;98405.84;;;23.50;24.81
60589;BME280;46421;48.610;9.334;2023-02-21T09:25:11;98429.34;;;24.38;22.67
60589;BME280;46421;48.610;9.334;2023-02-21T09:27:40;98425.91;;;23.71;23.56
60589;BME280;46421;48.610;9.334;2023-02-21T09:30:09;98429.16;;;23.29;24.22
60589;BME280;46421;48.610;9.334;2023-02-21T09:32:35;98429.69;;;25.60;21.24
60589;BME280;46421;48.610;9.334;2023-02-21T09:35:01;98422.81;;;26.11;20.75
60589;BME280;46421;48.610;9.334;2023-02-21T09:37:26;98418.91;;;24.52;22.95
60589;BME280;46421;48.610;9.334;2023-02-21T09:39:52;98427.03;;;22.97;26.36
60589;BME280;46421;48.610;9.334;2023-02-21T09:42:18;98422.44;;;23.98;24.44
60589;BME280;46421;48.610;9.334;2023-02-21T09:44:44;98421.53;;;24.14;24.50
60589;BME280;46421;48.610;9.334;2023-02-21T09:47:18;98417.94;;;26.33;20.92
60589;BME280;46421;48.610;9.334;2023-02-21T09:49:47;98421.47;;;23.87;25.08
60589;BME280;46421;48.610;9.334;2023-02-21T09:52:26;98416.13;;;23.48;25.03
60589;BME280;46421;48.610;9.334;2023-02-21T09:54:57;98414.22;;;22.41;25.84
60589;BME280;46421;48.610;9.334;2023-02-21T09:57:23;98412.88;;;21.69;26.61
60589;BME280;46421;48.610;9.334;2023-02-21T09:59:48;98413.38;;;22.23;26.17
60589;BME280;46421;48.610;9.334;2023-02-21T10:02:36;98412.41;;;23.32;26.00
60589;BME280;46421;48.610;9.334;2023-02-21T10:05:32;98408.97;;;23.19;24.02
60589;BME280;46421;48.610;9.334;2023-02-21T10:08:31;98410.25;;;23.78;25.00
60589;BME280;46421;48.610;9.334;2023-02-21T10:11:27;98402.59;;;26.01;22.47
60589;BME280;46421;48.610;9.334;2023-02-21T10:14:10;98404.44;;;24.79;24.46
60589;BME280;46421;48.610;9.334;2023-02-21T10:16:43;98411.16;;;25.52;24.61
60589;BME280;46421;48.610;9.334;2023-02-21T10:19:18;98402.28;;;24.49;24.59
60589;BME280;46421;48.610;9.334;2023-02-21T10:21:47;98402.41;;;25.02;26.16
60589;BME280;46421;48.610;9.334;2023-02-21T10:24:19;98398.84;;;24.26;23.23
60589;BME280;46421;48.610;9.334;2023-02-21T10:27:06;98387.91;;;28.66;19.91
60589;BME280;46421;48.610;9.334;2023-02-21T10:30:06;98393.72;;;26.78;21.45
60589;BME280;46421;48.610;9.334;2023-02-21T10:32:23;98388.84;;;25.50;21.46
60589;BME280;46421;48.610;9.334;2023-02-21T10:34:49;98393.97;;;26.87;21.88
60589;BME280;46421;48.610;9.334;2023-02-21T10:37:25;98388.97;;;27.36;22.54
60589;BME280;46421;48.610;9.334;2023-02-21T10:39:55;98384.44;;;26.69;20.75
60589;BME280;46421;48.610;9.334;2023-02-21T10:45:01;98382.94;;;25.15;21.54
60589;BME280;46421;48.610;9.334;2023-02-21T10:47:44;98383.31;;;26.18;21.53
60589;BME280;46421;48.610;9.334;2023-02-21T10:50:12;98387.72;;;28.58;21.95
60589;BME280;46421;48.610;9.334;2023-02-21T10:52:48;98383.06;;;28.23;20.61
60589;BME280;46421;48.610;9.334;2023-02-21T10:55:20;98375.53;;;28.79;20.57
60589;BME280;46421;48.610;9.334;2023-02-21T10:57:53;98366.69;;;27.79;21.13
60589;BME280;46421;48.610;9.334;2023-02-21T11:00:26;98377.75;;;30.51;17.62
60589;BME280;46421;48.610;9.334;2023-02-21T11:02:55;98368.66;;;28.13;20.08
60589;BME280;46421;48.610;9.334;2023-02-21T11:05:22;98367.25;;;26.53;20.40
60589;BME280;46421;48.610;9.334;2023-02-21T11:08:00;98364.75;;;27.79;21.61
60589;BME280;46421;48.610;9.334;2023-02-21T11:10:32;98359.59;;;28.86;19.51
60589;BME280;46421;48.610;9.334;2023-02-21T11:13:20;98354.06;;;28.92;19.84
60589;BME280;46421;48.610;9.334;2023-02-21T11:15:46;98349.63;;;31.20;16.91
60589;BME280;46421;48.610;9.334;2023-02-21T11:20:39;98340.03;;;28.00;19.62
60589;BME280;46421;48.610;9.334;2023-02-21T11:23:15;98336.91;;;28.22;19.85
60589;BME280;46421;48.610;9.334;2023-02-21T11:25:41;98318.66;;;28.12;21.00
60589;BME280;46421;48.610;9.334;2023-02-21T11:33:23;98315.78;;;27.93;18.70
60589;BME280;46421;48.610;9.334;2023-02-21T11:35:50;98315.00;;;28.56;18.05
60589;BME280;46421;48.610;9.334;2023-02-21T11:38:40;98311.97;;;28.29;18.91
60589;BME280;46421;48.610;9.334;2023-02-21T11:41:55;98307.03;;;26.29;19.79
60589;BME280;46421;48.610;9.334;2023-02-21T11:46:54;98303.19;;;28.61;21.24
60589;BME280;46421;48.610;9.334;2023-02-21T11:52:02;98282.63;;;28.10;19.31
60589;BME280;46421;48.610;9.334;2023-02-21T11:54:30;98286.09;;;28.80;19.45
60589;BME280;46421;48.610;9.334;2023-02-21T11:57:03;98286.00;;;29.09;19.23
60589;BME280;46421;48.610;9.334;2023-02-21T11:59:52;98277.66;;;30.01;19.02
60589;BME280;46421;48.610;9.334;2023-02-21T12:05:52;98267.25;;;30.64;16.94
60589;BME280;46421;48.610;9.334;2023-02-21T12:08:37;98257.22;;;28.10;19.26
60589;BME280;46421;48.610;9.334;2023-02-21T12:18:57;98234.31;;;27.66;21.13
60589;BME280;46421;48.610;9.334;2023-02-21T12:22:00;98225.59;;;30.01;18.20
60589;BME280;46421;48.610;9.334;2023-02-21T12:27:33;98214.94;;;28.55;18.55
60589;BME280;46421;48.610;9.334;2023-02-21T12:30:15;98213.59;;;26.33;20.63
60589;BME280;46421;48.610;9.334;2023-02-21T12:38:13;98197.38;;;27.73;19.77
60589;BME280;46421;48.610;9.334;2023-02-21T12:40:57;98191.72;;;26.54;20.72
60589;BME280;46421;48.610;9.334;2023-02-21T12:46:20;98187.88;;;24.95;20.63
60589;BME280;46421;48.610;9.334;2023-02-21T12:49:04;98171.13;;;25.60;21.67
60589;BME280;46421;48.610;9.334;2023-02-21T12:51:35;98166.38;;;26.54;21.37
60589;BME280;46421;48.610;9.334;2023-02-21T12:54:09;98165.09;;;26.35;20.77
60589;BME280;46421;48.610;9.334;2023-02-21T12:56:45;98155.41;;;26.64;21.03
60589;BME280;46421;48.610;9.334;2023-02-21T12:59:20;98161.84;;;24.51;22.54
60589;BME280;46421;48.610;9.334;2023-02-21T13:01:53;98147.56;;;22.71;24.04
60589;BME280;46421;48.610;9.334;2023-02-21T13:06:56;98135.25;;;22.02;26.46
60589;BME280;46421;48.610;9.334;2023-02-21T13:09:37;98132.09;;;24.24;24.11
60589;BME280;46421;48.610;9.334;2023-02-21T13:12:10;98116.38;;;24.26;24.35
60589;BME280;46421;48.610;9.334;2023-02-21T13:14:54;98116.56;;;23.71;25.68
60589;BME280;46421;48.610;9.334;2023-02-21T13:17:21;98110.69;;;23.19;26.31
60589;BME280;46421;48.610;9.334;2023-02-21T13:19:59;98092.69;;;22.36;26.36
60589;BME280;46421;48.610;9.334;2023-02-21T13:28:35;98061.53;;;21.21;28.32
60589;BME280;46421;48.610;9.334;2023-02-21T13:31:05;98082.97;;;20.53;30.00
60589;BME280;46421;48.610;9.334;2023-02-21T13:33:40;98066.78;;;19.77;31.37
60589;BME280;46421;48.610;9.334;2023-02-21T13:36:46;98080.28;;;19.53;33.52
60589;BME280;46421;48.610;9.334;2023-02-21T13:41:48;98063.19;;;19.35;32.02
60589;BME280;46421;48.610;9.334;2023-02-21T13:44:30;98066.44;;;19.37;31.06
60589;BME280;46421;48.610;9.334;2023-02-21T13:49:54;98056.00;;;18.26;34.00
60589;BME280;46421;48.610;9.334;2023-02-21T14:05:25;98021.34;;;17.80;35.28
60589;BME280;46421;48.610;9.334;2023-02-21T14:07:59;98028.63;;;17.73;33.33
60589;BME280;46421;48.610;9.334;2023-02-21T14:10:43;98023.25;;;17.73;32.71
60589;BME280;46421;48.610;9.334;2023-02-21T14:13:38;98019.16;;;17.70;33.04
60589;BME280;46421;48.610;9.334;2023-02-21T14:16:08;98017.38;;;18.20;32.48
60589;BME280;46421;48.610;9.334;2023-02-21T14:19:09;98017.47;;;18.86;31.89
60589;BME280;46421;48.610;9.334;2023-02-21T14:31:55;98009.13;;;19.06;31.56
60589;BME280;46421;48.610;9.334;2023-02-21T14:36:57;98001.09;;;18.45;32.92
60589;BME280;46421;48.610;9.334;2023-02-21T14:39:30;97998.56;;;18.62;32.68
60589;BME280;46421;48.610;9.334;2023-02-21T14:50:40;97985.38;;;17.37;34.81
60589;BME280;46421;48.610;9.334;2023-02-21T14:53:18;97986.53;;;17.23;35.32
60589;BME280;46421;48.610;9.334;2023-02-21T15:01:38;97967.75;;;16.98;36.07
60589;BME280;46421;48.610;9.334;2023-02-21T15:04:16;97963.88;;;16.94;38.57
60589;BME280;46421;48.610;9.334;2023-02-21T15:06:52;97966.06;;;16.46;37.46
60589;BME280;46421;48.610;9.334;2023-02-21T15:09:20;97956.78;;;16.42;36.42
60589;BME280;46421;48.610;9.334;2023-02-21T15:11:47;97956.00;;;16.35;36.97
60589;BME280;46421;48.610;9.334;2023-02-21T15:16:54;97963.50;;;16.19;37.16
60589;BME280;46421;48.610;9.334;2023-02-21T15:24:36;97959.06;;;15.34;39.95
60589;BME280;46421;48.610;9.334;2023-02-21T15:27:12;97963.41;;;15.28;39.29
60589;BME280;46421;48.610;9.334;2023-02-21T15:29:39;97951.63;;;15.43;39.36
60589;BME280;46421;48.610;9.334;2023-02-21T15:32:05;97950.00;;;15.22;40.06
60589;BME280;46421;48.610;9.334;2023-02-21T15:34:41;97953.56;;;15.02;40.33
60589;BME280;46421;48.610;9.334;2023-02-21T15:37:16;97949.44;;;14.99;40.27
60589;BME280;46421;48.610;9.334;2023-02-21T15:39:48;97941.59;;;14.78;41.89
60589;BME280;46421;48.610;9.334;2023-02-21T15:42:15;97945.91;;;14.65;41.56
60589;BME280;46421;48.610;9.334;2023-02-21T15:44:56;97945.69;;;14.53;42.15
60589;BME280;46421;48.610;9.334;2023-02-21T15:47:23;97943.63;;;14.55;41.92